createdAt,value
2018-05-24T00:00:03.087Z,51.44
2018-05-24T00:02:06.441Z,51.72
2018-05-24T00:04:09.774Z,51.23
2018-05-24T00:06:13.128Z,51.53
2018-05-24T00:08:16.605Z,51.77
2018-05-24T00:10:19.964Z,51.83
2018-05-24T00:12:23.278Z,51.09
2018-05-24T00:14:26.629Z,51.53
2018-05-24T00:16:30.004Z,51.52
2018-05-24T00:18:33.475Z,51.54
2018-05-24T00:20:36.865Z,51.98
2018-05-24T00:22:40.269Z,51.62
2018-05-24T00:24:43.640Z,51.80
2018-05-24T00:26:47.015Z,51.81
2018-05-24T00:28:50.700Z,51.92
2018-05-24T00:30:54.835Z,51.12
2018-05-24T00:32:58.375Z,51.55
2018-05-24T00:35:01.741Z,51.44
2018-05-24T00:37:05.092Z,51.65
2018-05-24T00:39:09.410Z,51.48
2018-05-24T00:41:13.603Z,50.98
2018-05-24T00:43:19.043Z,51.10
2018-05-24T00:45:23.180Z,51.30
2018-05-24T00:47:27.409Z,51.37
2018-05-24T00:49:30.985Z,51.66
2018-05-24T00:51:35.187Z,50.41
2018-05-24T00:53:38.675Z,50.51
2018-05-24T00:55:42.780Z,50.86
2018-05-24T00:57:46.152Z,50.74
2018-05-24T00:59:50.094Z,50.56
2018-05-24T01:01:53.444Z,50.41
2018-05-24T01:03:56.785Z,50.42
2018-05-24T01:06:00.848Z,50.30
2018-05-24T01:08:04.307Z,50.23
2018-05-24T01:10:07.646Z,49.98
2018-05-24T01:12:11.082Z,50.16
2018-05-24T01:14:15.174Z,49.80
2018-05-24T01:16:18.505Z,49.26
2018-05-24T01:18:21.859Z,49.45
2018-05-24T01:20:25.192Z,49.40
2018-05-24T01:22:28.542Z,49.79
2018-05-24T01:24:31.870Z,49.62
2018-05-24T01:26:35.216Z,49.53
2018-05-24T01:28:38.564Z,49.57
2018-05-24T01:30:41.894Z,50.04
2018-05-24T01:32:45.402Z,50.08
2018-05-24T01:34:48.916Z,50.48
2018-05-24T01:37:09.715Z,50.39
2018-05-24T01:39:13.045Z,50.02
2018-05-24T01:41:16.608Z,50.08
2018-05-24T01:43:20.722Z,49.83
2018-05-24T01:45:24.069Z,49.67
2018-05-24T01:47:27.573Z,49.66
2018-05-24T01:49:31.162Z,49.85
2018-05-24T01:51:34.459Z,49.90
2018-05-24T01:53:37.861Z,50.04
2018-05-24T01:55:41.170Z,49.30
2018-05-24T01:57:44.530Z,49.33
2018-05-24T01:59:47.937Z,49.16
2018-05-24T02:01:51.237Z,48.67
2018-05-24T02:03:54.573Z,49.36
2018-05-24T02:05:57.886Z,49.46
2018-05-24T02:08:01.188Z,49.29
2018-05-24T02:10:04.533Z,48.89
2018-05-24T02:12:07.860Z,48.75
2018-05-24T02:14:11.177Z,48.72
2018-05-24T02:16:14.494Z,48.74
2018-05-24T02:18:17.837Z,48.85
2018-05-24T02:20:21.144Z,48.92
2018-05-24T02:22:24.462Z,48.65
2018-05-24T02:24:28.653Z,48.20
2018-05-24T02:26:31.975Z,48.41
2018-05-24T02:28:35.300Z,48.37
2018-05-24T02:30:38.885Z,48.68
2018-05-24T02:32:42.215Z,48.51
2018-05-24T02:34:45.719Z,48.75
2018-05-24T02:36:49.063Z,48.30
2018-05-24T02:38:52.364Z,48.78
2018-05-24T02:40:55.786Z,49.06
2018-05-24T02:42:59.131Z,49.28
2018-05-24T02:45:03.293Z,49.33
2018-05-24T02:47:06.629Z,49.60
2018-05-24T02:49:09.975Z,49.69
2018-05-24T02:51:13.295Z,49.96
2018-05-24T02:53:16.632Z,49.86
2018-05-24T02:55:19.946Z,50.33
2018-05-24T02:57:23.267Z,50.44
2018-05-24T02:59:26.619Z,50.69
2018-05-24T03:01:29.946Z,50.20
2018-05-24T03:03:33.294Z,50.93
2018-05-24T03:05:36.610Z,50.34
2018-05-24T03:07:39.943Z,50.38
2018-05-24T03:09:44.062Z,50.06
2018-05-24T03:11:47.380Z,49.70
2018-05-24T03:13:50.763Z,50.39
2018-05-24T03:15:54.081Z,50.31
2018-05-24T03:17:57.410Z,50.25
2018-05-24T03:20:00.754Z,50.07
2018-05-24T03:22:04.095Z,49.91
2018-05-24T03:24:08.426Z,50.18
2018-05-24T03:26:11.784Z,50.49
2018-05-24T03:28:15.112Z,50.69
2018-05-24T03:30:18.459Z,51.15
2018-05-24T03:32:21.779Z,52.06
2018-05-24T03:34:25.921Z,52.27
2018-05-24T03:36:29.242Z,52.86
2018-05-24T03:38:32.595Z,53.50
2018-05-24T03:40:35.971Z,53.77
2018-05-24T03:42:40.091Z,54.18
2018-05-24T03:44:44.245Z,54.46
2018-05-24T03:46:47.603Z,55.96
2018-05-24T03:48:50.923Z,55.89
2018-05-24T03:50:54.236Z,56.50
2018-05-24T03:52:57.559Z,56.94
2018-05-24T03:55:01.696Z,57.61
2018-05-24T03:57:05.008Z,58.07
2018-05-24T04:02:31.179Z,59.32
2018-05-24T04:04:58.760Z,59.34
2018-05-24T04:07:02.832Z,59.66
2018-05-24T04:09:06.308Z,60.15
2018-05-24T04:11:09.626Z,60.08
2018-05-24T04:13:12.956Z,60.16
2018-05-24T04:15:17.059Z,60.51
2018-05-24T04:17:20.410Z,61.33
2018-05-24T04:19:23.810Z,61.34
2018-05-24T04:21:27.212Z,61.66
2018-05-24T04:23:30.535Z,62.23
2018-05-24T04:25:34.800Z,63.23
2018-05-24T04:27:38.154Z,63.03
2018-05-24T04:29:42.247Z,63.25
2018-05-24T04:31:46.660Z,62.83
2018-05-24T04:33:51.784Z,62.69
2018-05-24T04:35:55.145Z,63.20
2018-05-24T04:37:58.876Z,63.57
2018-05-24T04:40:02.580Z,63.76
2018-05-24T04:42:05.953Z,64.63
2018-05-24T04:44:09.310Z,66.89
2018-05-24T04:46:12.802Z,68.49
2018-05-24T04:48:16.143Z,68.67
2018-05-24T04:50:19.526Z,69.45
2018-05-24T04:52:23.680Z,70.34
2018-05-24T04:54:28.502Z,71.69
2018-05-24T04:56:32.609Z,72.17
2018-05-24T04:58:36.748Z,72.49
2018-05-24T05:00:40.386Z,72.19
2018-05-24T05:02:43.756Z,72.53
2018-05-24T05:04:47.888Z,72.57
2018-05-24T05:06:51.213Z,72.95
2018-05-24T05:08:55.295Z,74.12
2018-05-24T05:10:58.647Z,75.51
2018-05-24T05:13:02.015Z,75.64
2018-05-24T05:15:05.450Z,76.24
2018-05-24T05:17:08.825Z,76.35
2018-05-24T05:19:12.240Z,76.93
2018-05-24T05:21:15.559Z,77.57
2018-05-24T05:23:18.970Z,77.22
2018-05-24T05:25:23.985Z,77.72
2018-05-24T05:27:28.181Z,77.52
2018-05-24T05:29:31.551Z,78.64
2018-05-24T05:31:35.324Z,79.20
2018-05-24T05:33:38.671Z,78.76
2018-05-24T05:35:42.032Z,78.95
2018-05-24T05:37:45.449Z,79.11
2018-05-24T05:39:48.918Z,79.26
2018-05-24T05:41:52.323Z,79.58
2018-05-24T05:43:55.950Z,79.49
2018-05-24T05:45:59.429Z,80.01
2018-05-24T05:48:02.845Z,80.87
2018-05-24T05:50:06.239Z,81.56
2018-05-24T05:52:09.694Z,82.64
2018-05-24T05:54:12.935Z,82.53
2018-05-24T05:56:16.326Z,82.83
2018-05-24T05:58:19.635Z,83.01
2018-05-24T06:00:24.603Z,83.30
2018-05-24T06:02:27.949Z,83.37
2018-05-24T06:04:32.129Z,83.24
2018-05-24T06:06:35.541Z,82.96
2018-05-24T06:08:38.985Z,83.12
2018-05-24T06:10:42.415Z,82.52
2018-05-24T06:12:45.740Z,82.51
2018-05-24T06:15:06.237Z,82.19
2018-05-24T06:17:09.788Z,81.44
2018-05-24T06:19:13.187Z,81.84
2018-05-24T06:21:16.508Z,81.68
2018-05-24T06:23:19.908Z,82.12
2018-05-24T06:25:23.337Z,82.29
2018-05-24T06:27:26.679Z,81.09
2018-05-24T06:29:29.972Z,80.31
2018-05-24T06:31:33.304Z,79.46
2018-05-24T06:33:36.663Z,79.37
2018-05-24T06:35:40.030Z,79.51
2018-05-24T06:37:43.403Z,79.13
2018-05-24T06:39:46.779Z,78.83
2018-05-24T06:41:50.203Z,78.81
2018-05-24T06:43:53.599Z,79.03
2018-05-24T06:45:56.972Z,79.37
2018-05-24T06:48:00.300Z,79.54
2018-05-24T06:50:03.645Z,79.53
2018-05-24T06:52:06.971Z,78.04
2018-05-24T06:54:10.334Z,77.99
2018-05-24T06:56:13.720Z,77.56
2018-05-24T06:58:17.259Z,77.54
2018-05-24T07:00:20.600Z,77.53
2018-05-24T07:02:24.295Z,77.01
2018-05-24T07:04:27.719Z,77.28
2018-05-24T07:06:31.093Z,76.60
2018-05-24T07:08:34.533Z,76.53
2018-05-24T07:10:39.630Z,76.29
2018-05-24T07:12:43.060Z,75.91
2018-05-24T07:14:46.469Z,76.36
2018-05-24T07:16:50.575Z,76.50
2018-05-24T07:18:53.935Z,76.18
2018-05-24T07:20:57.611Z,76.39
2018-05-24T07:23:01.006Z,76.53
2018-05-24T07:25:04.413Z,76.83
2018-05-24T07:27:08.016Z,76.46
2018-05-24T07:29:11.372Z,76.08
2018-05-24T07:31:14.765Z,75.25
2018-05-24T07:33:18.242Z,75.47
2018-05-24T07:35:21.578Z,75.02
2018-05-24T07:37:24.919Z,74.50
2018-05-24T07:39:28.309Z,73.43
2018-05-24T07:41:31.687Z,73.07
2018-05-24T07:43:35.008Z,72.51
2018-05-24T07:45:38.368Z,72.77
2018-05-24T07:47:41.686Z,71.62
2018-05-24T07:49:45.028Z,72.20
2018-05-24T07:51:48.381Z,72.10
2018-05-24T07:53:51.721Z,71.19
2018-05-24T07:55:55.627Z,70.74
2018-05-24T07:57:59.546Z,69.99
2018-05-24T08:00:02.972Z,69.95
2018-05-24T08:02:06.303Z,69.12
2018-05-24T08:04:09.722Z,68.46
2018-05-24T08:06:13.071Z,68.41
2018-05-24T08:08:16.486Z,68.79
2018-05-24T08:10:20.008Z,67.68
2018-05-24T08:12:23.403Z,67.63
2018-05-24T08:14:27.132Z,66.65
2018-05-24T08:16:30.493Z,67.06
2018-05-24T08:18:33.850Z,67.46
2018-05-24T08:20:37.176Z,67.18
2018-05-24T08:22:41.021Z,67.18
2018-05-24T08:24:44.370Z,67.18
2018-05-24T08:26:47.702Z,65.66
2018-05-24T08:28:51.026Z,65.67
2018-05-24T08:30:54.362Z,65.44
2018-05-24T08:32:57.704Z,64.68
2018-05-24T08:35:01.116Z,65.31
2018-05-24T08:37:04.417Z,65.64
2018-05-24T08:39:07.776Z,64.76
2018-05-24T08:41:12.376Z,64.43
2018-05-24T08:43:15.724Z,64.40
2018-05-24T08:45:19.041Z,63.88
2018-05-24T08:47:22.511Z,64.57
2018-05-24T08:49:25.787Z,62.18
2018-05-24T08:51:29.106Z,63.90
2018-05-24T08:53:32.550Z,64.47
2018-05-24T08:55:35.900Z,64.15
2018-05-24T08:57:40.091Z,64.30
2018-05-24T08:59:43.596Z,64.21
2018-05-24T09:01:47.854Z,64.07
2018-05-24T09:03:51.249Z,62.99
2018-05-24T09:05:54.655Z,63.87
2018-05-24T09:07:57.983Z,64.61
2018-05-24T09:10:01.341Z,64.73
2018-05-24T09:12:04.760Z,65.06
2018-05-24T09:14:09.225Z,64.69
2018-05-24T09:16:12.653Z,63.43
2018-05-24T09:18:15.989Z,64.25
2018-05-24T09:20:19.487Z,63.85
2018-05-24T09:22:22.808Z,64.23
2018-05-24T09:24:26.199Z,64.22
2018-05-24T09:26:30.361Z,64.77
2018-05-24T09:28:33.699Z,64.89
2018-05-24T09:30:38.172Z,65.33
2018-05-24T09:32:41.625Z,65.89
2018-05-24T09:34:45.097Z,66.41
2018-05-24T09:36:48.693Z,65.72
2018-05-24T09:38:52.076Z,66.98
2018-05-24T09:40:55.477Z,66.64
2018-05-24T09:42:58.876Z,67.56
2018-05-24T09:45:02.233Z,66.80
2018-05-24T09:47:05.589Z,67.13
2018-05-24T09:49:09.145Z,66.89
2018-05-24T09:51:12.518Z,67.02
2018-05-24T09:53:15.951Z,67.01
2018-05-24T09:55:19.340Z,67.06
2018-05-24T09:57:22.742Z,67.35
2018-05-24T09:59:26.088Z,67.65
2018-05-24T10:01:29.488Z,67.00
2018-05-24T10:03:32.968Z,67.61
2018-05-24T10:05:36.446Z,66.95
2018-05-24T10:07:39.914Z,67.34
2018-05-24T10:09:43.387Z,67.90
2018-05-24T10:11:46.810Z,67.70
2018-05-24T10:13:50.151Z,67.09
2018-05-24T10:15:53.500Z,66.52
2018-05-24T10:17:56.885Z,65.92
2018-05-24T10:20:00.373Z,66.09
2018-05-24T10:22:03.783Z,65.54
2018-05-24T10:24:07.235Z,65.80
2018-05-24T10:26:10.777Z,64.97
2018-05-24T10:28:14.225Z,64.89
2018-05-24T10:30:17.591Z,65.18
2018-05-24T10:32:20.975Z,64.88
2018-05-24T10:34:24.437Z,65.39
2018-05-24T10:36:27.812Z,64.18
2018-05-24T10:38:31.496Z,64.96
2018-05-24T10:40:35.598Z,63.84
2018-05-24T10:42:39.249Z,64.83
2018-05-24T10:44:42.824Z,64.38
2018-05-24T10:46:46.363Z,63.25
2018-05-24T10:48:49.859Z,63.22
2018-05-24T10:50:53.311Z,63.98
2018-05-24T10:52:56.615Z,62.04
2018-05-24T10:55:00.713Z,62.78
2018-05-24T10:57:04.862Z,61.15
2018-05-24T10:59:08.204Z,60.60
2018-05-24T11:01:11.725Z,60.17
2018-05-24T11:03:15.099Z,59.78
2018-05-24T11:05:18.504Z,60.22
2018-05-24T11:07:22.642Z,61.54
2018-05-24T11:09:26.078Z,61.36
2018-05-24T11:11:29.500Z,62.30
2018-05-24T11:13:33.669Z,62.46
2018-05-24T11:15:37.012Z,61.30
2018-05-24T11:17:40.371Z,61.26
2018-05-24T11:19:43.857Z,61.41
2018-05-24T11:21:47.295Z,61.54
2018-05-24T11:23:50.782Z,61.15
2018-05-24T11:25:54.177Z,61.04
2018-05-24T11:27:58.321Z,60.75
2018-05-24T11:30:01.701Z,60.93
2018-05-24T11:32:05.176Z,60.20
2018-05-24T11:34:08.611Z,59.92
2018-05-24T11:36:11.999Z,59.12
2018-05-24T11:38:15.330Z,59.76
2018-05-24T11:40:18.727Z,59.53
2018-05-24T11:42:22.130Z,58.32
2018-05-24T11:44:25.537Z,56.58
2018-05-24T11:46:28.942Z,57.67
2018-05-24T11:48:32.423Z,57.33
2018-05-24T11:50:36.559Z,57.06
2018-05-24T11:52:39.891Z,56.97
2018-05-24T11:54:43.281Z,57.90
2018-05-24T11:56:46.804Z,57.29
2018-05-24T11:58:52.067Z,58.09
2018-05-24T12:00:56.224Z,57.66
2018-05-24T12:02:59.590Z,58.66
2018-05-24T12:05:02.946Z,57.70
2018-05-24T12:07:07.167Z,57.45
2018-05-24T12:09:10.557Z,58.14
2018-05-24T12:11:14.718Z,57.67
2018-05-24T12:13:18.106Z,57.79
2018-05-24T12:15:21.587Z,56.71
2018-05-24T12:17:24.988Z,57.62
2018-05-24T12:19:28.356Z,57.88
2018-05-24T12:21:31.768Z,57.84
2018-05-24T12:23:35.201Z,58.42
2018-05-24T12:25:38.694Z,58.16
2018-05-24T12:27:42.675Z,57.58
2018-05-24T12:29:46.146Z,57.88
2018-05-24T12:31:49.526Z,58.25
2018-05-24T12:33:53.675Z,57.95
2018-05-24T12:35:57.068Z,57.53
2018-05-24T12:38:00.462Z,53.94
2018-05-24T12:40:03.909Z,53.69
2018-05-24T12:42:07.303Z,53.17
2018-05-24T12:44:10.722Z,53.26
2018-05-24T12:46:14.078Z,52.48
2018-05-24T12:48:18.457Z,53.15
2018-05-24T12:50:21.860Z,53.25
2018-05-24T12:52:25.289Z,51.76
2018-05-24T12:54:29.000Z,52.20
2018-05-24T12:56:33.118Z,53.33
2018-05-24T12:58:38.600Z,52.51
2018-05-24T13:00:42.226Z,53.64
2018-05-24T13:02:45.703Z,52.79
2018-05-24T13:04:49.066Z,52.50
2018-05-24T13:06:52.585Z,52.49
2018-05-24T13:08:55.925Z,51.88
2018-05-24T13:11:00.262Z,52.23
2018-05-24T13:13:03.652Z,52.45
2018-05-24T13:15:07.027Z,52.30
2018-05-24T13:17:11.156Z,52.78
2018-05-24T13:19:14.497Z,52.47
2018-05-24T13:21:17.979Z,52.47
2018-05-24T13:23:21.359Z,52.15
2018-05-24T13:25:24.706Z,53.13
2018-05-24T13:27:28.031Z,53.32
2018-05-24T13:29:31.452Z,53.04
2018-05-24T13:31:34.835Z,52.12
2018-05-24T13:33:38.248Z,51.93
2018-05-24T13:35:41.597Z,51.53
2018-05-24T13:37:44.978Z,51.57
2018-05-24T13:39:48.358Z,50.78
2018-05-24T13:41:52.630Z,51.74
2018-05-24T13:43:56.041Z,51.14
2018-05-24T13:46:00.237Z,51.11
2018-05-24T13:48:03.553Z,51.31
2018-05-24T13:50:07.001Z,51.50
2018-05-24T13:52:10.500Z,51.44
2018-05-24T13:54:13.911Z,51.79
2018-05-24T13:56:17.300Z,51.89
2018-05-24T13:58:20.844Z,51.48
2018-05-24T14:00:24.234Z,51.77
2018-05-24T14:02:27.680Z,51.41
2018-05-24T14:04:31.911Z,50.65
2018-05-24T14:08:38.796Z,50.68
2018-05-24T14:10:42.690Z,50.99
2018-05-24T14:12:47.263Z,50.64
2018-05-24T14:14:50.668Z,51.01
2018-05-24T14:16:54.091Z,51.22
2018-05-24T14:18:58.076Z,51.69
2018-05-24T14:21:01.952Z,52.45
2018-05-24T14:23:05.308Z,53.10
2018-05-24T14:25:08.783Z,54.18
2018-05-24T14:27:12.194Z,55.06
2018-05-24T14:29:15.961Z,55.81
2018-05-24T14:31:19.404Z,55.99
2018-05-24T14:33:23.609Z,56.21
2018-05-24T14:35:28.269Z,56.49
2018-05-24T14:37:33.068Z,56.97
2018-05-24T14:39:36.729Z,57.58
2018-05-24T14:41:40.540Z,58.10
2018-05-24T14:43:43.935Z,58.34
2018-05-24T14:45:50.574Z,58.96
2018-05-24T14:47:57.838Z,59.22
2018-05-24T14:50:01.363Z,59.72
2018-05-24T14:52:04.903Z,60.20
2018-05-24T14:54:08.348Z,61.25
2018-05-24T14:56:12.458Z,63.54
2018-05-24T14:58:15.883Z,67.02
2018-05-24T15:00:19.352Z,70.04
2018-05-24T15:02:22.847Z,71.30
2018-05-24T15:04:26.432Z,73.20
2018-05-24T15:06:30.007Z,75.44
2018-05-24T15:08:33.362Z,75.56
2018-05-24T15:10:36.790Z,77.05
2018-05-24T15:12:40.172Z,77.56
2018-05-24T15:14:43.574Z,78.09
2018-05-24T15:16:47.132Z,78.13
2018-05-24T15:18:50.649Z,78.73
2018-05-24T15:20:54.114Z,78.96
2018-05-24T15:22:57.487Z,78.59
2018-05-24T15:25:00.936Z,78.91
2018-05-24T15:27:05.105Z,79.45
2018-05-24T15:29:08.513Z,80.05
2018-05-24T15:31:11.900Z,80.14
2018-05-24T15:33:15.255Z,79.63
2018-05-24T15:35:18.667Z,80.05
2018-05-24T15:37:22.047Z,80.56
2018-05-24T15:39:25.490Z,80.31
2018-05-24T15:41:28.900Z,80.21
2018-05-24T15:43:32.318Z,80.33
2018-05-24T15:45:35.769Z,80.35
2018-05-24T15:47:39.187Z,80.14
2018-05-24T15:49:42.524Z,79.70
2018-05-24T15:51:45.971Z,79.69
2018-05-24T15:53:49.436Z,79.26
2018-05-24T15:55:52.896Z,78.69
2018-05-24T15:57:56.289Z,78.25
2018-05-24T16:00:00.657Z,77.27
2018-05-24T16:02:04.638Z,77.93
2018-05-24T16:04:08.282Z,78.07
2018-05-24T16:06:12.574Z,77.61
2018-05-24T16:08:16.078Z,77.69
2018-05-24T16:10:19.715Z,77.38
2018-05-24T16:12:25.326Z,76.57
2018-05-24T16:14:30.336Z,76.59
2018-05-24T16:16:33.783Z,74.98
2018-05-24T16:18:37.979Z,75.00
2018-05-24T16:20:41.398Z,74.77
2018-05-24T16:22:44.815Z,74.39
2018-05-24T16:24:48.292Z,74.30
2018-05-24T16:26:51.874Z,72.94
2018-05-24T16:28:55.441Z,71.31
2018-05-24T16:31:00.921Z,72.24
2018-05-24T16:33:05.510Z,71.33
2018-05-24T16:35:09.269Z,69.95
2018-05-24T16:37:14.226Z,68.63
2018-05-24T16:39:18.565Z,69.02
2018-05-24T16:41:22.305Z,65.69
2018-05-24T16:43:26.383Z,64.80
2018-05-24T16:45:31.032Z,65.02
2018-05-24T16:47:34.524Z,62.72
2018-05-24T16:49:38.721Z,62.42
2018-05-24T16:51:42.199Z,63.31
2018-05-24T16:53:46.527Z,63.57
2018-05-24T16:55:49.972Z,63.89
2018-05-24T16:57:54.306Z,63.27
2018-05-24T17:00:04.128Z,62.77
2018-05-24T17:02:08.106Z,62.85
2018-05-24T17:04:11.689Z,62.06
2018-05-24T17:06:15.878Z,63.31
2018-05-24T17:08:20.740Z,62.63
2018-05-24T17:10:25.295Z,63.53
2018-05-24T17:12:29.329Z,63.55
2018-05-24T17:14:33.316Z,61.92
2018-05-24T17:16:37.592Z,62.99
2018-05-24T17:18:42.935Z,64.09
2018-05-24T17:20:49.394Z,63.70
2018-05-24T17:22:55.407Z,64.17
2018-05-24T17:24:59.703Z,65.12
2018-05-24T17:27:03.909Z,65.13
2018-05-24T17:29:07.502Z,64.68
2018-05-24T17:31:10.915Z,64.51
2018-05-24T17:33:14.808Z,64.41
2018-05-24T17:35:18.225Z,64.10
2018-05-24T17:37:21.715Z,63.71
2018-05-24T17:39:26.644Z,63.80
2018-05-24T17:41:30.047Z,63.52
2018-05-24T17:43:33.613Z,62.14
2018-05-24T17:45:37.802Z,62.23
2018-05-24T17:47:41.200Z,62.53
2018-05-24T17:49:45.630Z,62.90
2018-05-24T17:51:49.038Z,63.90
2018-05-24T17:53:52.422Z,63.16
2018-05-24T17:55:55.878Z,63.39
2018-05-24T17:57:59.581Z,63.75
2018-05-24T18:00:03.685Z,63.99
2018-05-24T18:02:07.322Z,63.36
2018-05-24T18:04:10.852Z,64.03
2018-05-24T18:06:14.906Z,64.38
2018-05-24T18:08:18.453Z,65.44
2018-05-24T18:10:21.962Z,65.00
2018-05-24T18:12:29.477Z,65.84
2018-05-24T18:14:34.101Z,66.37
2018-05-24T18:16:37.623Z,66.18
2018-05-24T18:18:41.004Z,66.17
2018-05-24T18:20:44.514Z,65.67
2018-05-24T18:22:48.910Z,65.64
2018-05-24T18:24:52.376Z,66.80
2018-05-24T18:26:56.695Z,66.85
2018-05-24T18:29:00.475Z,67.50
2018-05-24T18:31:04.939Z,67.18
2018-05-24T18:33:09.289Z,67.52
2018-05-24T18:35:12.690Z,67.19
2018-05-24T18:37:16.099Z,67.31
2018-05-24T18:39:19.435Z,67.07
2018-05-24T18:41:23.778Z,67.95
2018-05-24T18:43:27.391Z,68.03
2018-05-24T18:45:30.869Z,68.06
2018-05-24T18:47:34.232Z,67.65
2018-05-24T18:49:37.588Z,68.20
2018-05-24T18:51:43.101Z,67.58
2018-05-24T18:53:50.485Z,68.38
2018-05-24T18:55:54.825Z,68.37
2018-05-24T18:57:58.209Z,68.48
2018-05-24T19:00:04.975Z,68.91
2018-05-24T19:02:09.319Z,67.91
2018-05-24T19:04:13.946Z,68.23
2018-05-24T19:06:18.127Z,68.19
2018-05-24T19:08:21.574Z,67.40
2018-05-24T19:10:25.139Z,67.79
2018-05-24T19:12:28.816Z,68.02
2018-05-24T19:14:32.472Z,67.90
2018-05-24T19:16:35.795Z,68.31
2018-05-24T19:18:39.197Z,68.58
2018-05-24T19:20:42.700Z,68.67
2018-05-24T19:22:46.095Z,68.16
2018-05-24T19:24:49.502Z,68.80
2018-05-24T19:26:52.839Z,68.70
2018-05-24T19:28:56.275Z,68.68
2018-05-24T19:30:59.864Z,68.90
2018-05-24T19:33:03.218Z,69.22
2018-05-24T19:35:06.724Z,69.62
2018-05-24T19:37:10.413Z,69.49
2018-05-24T19:39:13.816Z,69.53
2018-05-24T19:41:17.269Z,69.84
2018-05-24T19:43:21.555Z,69.62
2018-05-24T19:45:25.379Z,69.90
2018-05-24T19:47:28.813Z,70.33
2018-05-24T19:49:32.242Z,70.53
2018-05-24T19:51:35.730Z,70.11
2018-05-24T19:53:40.408Z,69.88
2018-05-24T19:55:44.849Z,69.97
2018-05-24T19:57:48.618Z,70.27
2018-05-24T19:59:52.595Z,70.74
2018-05-24T20:01:57.036Z,70.81
2018-05-24T20:04:01.174Z,70.93
2018-05-24T20:06:05.162Z,70.79
2018-05-24T20:08:08.664Z,70.36
2018-05-24T20:10:12.262Z,70.06
2018-05-24T20:12:15.696Z,70.20
2018-05-24T20:14:20.076Z,70.07
2018-05-24T20:16:23.525Z,70.21
2018-05-24T20:18:27.626Z,70.31
2018-05-24T20:20:31.139Z,69.17
2018-05-24T20:22:35.448Z,70.09
2018-05-24T20:24:39.001Z,70.41
2018-05-24T20:26:43.112Z,70.78
2018-05-24T20:28:46.856Z,70.23
2018-05-24T20:30:50.238Z,70.61
2018-05-24T20:32:53.958Z,70.46
2018-05-24T20:34:57.485Z,70.41
2018-05-24T20:37:01.273Z,69.91
2018-05-24T20:39:06.959Z,70.84
2018-05-24T20:41:10.465Z,69.95
2018-05-24T20:43:13.988Z,70.03
2018-05-24T20:45:17.816Z,70.68
2018-05-24T20:47:22.427Z,70.27
2018-05-24T20:49:26.430Z,70.31
2018-05-24T20:51:30.316Z,70.79
2018-05-24T20:53:33.812Z,70.83
2018-05-24T20:55:37.780Z,71.03
2018-05-24T20:57:42.143Z,70.38
2018-05-24T20:59:45.738Z,70.88
2018-05-24T21:01:49.361Z,71.26
2018-05-24T21:03:52.969Z,71.52
2018-05-24T21:05:56.468Z,71.01
2018-05-24T21:08:00.035Z,71.44
2018-05-24T21:10:03.491Z,71.57
2018-05-24T21:12:06.851Z,71.82
2018-05-24T21:14:10.981Z,71.78
2018-05-24T21:16:14.408Z,72.08
2018-05-24T21:18:17.940Z,71.82
2018-05-24T21:20:21.781Z,71.79
2018-05-24T21:22:25.147Z,71.86
2018-05-24T21:24:29.460Z,72.24
2018-05-24T21:26:32.956Z,72.06
2018-05-24T21:28:36.391Z,71.94
2018-05-24T21:30:39.809Z,72.42
2018-05-24T21:32:44.235Z,72.31
2018-05-24T21:34:50.535Z,72.49
2018-05-24T21:36:55.210Z,72.59
2018-05-24T21:38:59.852Z,72.99
2018-05-24T21:41:03.829Z,72.94
2018-05-24T21:43:07.833Z,73.27
2018-05-24T21:45:11.778Z,73.49
2018-05-24T21:47:15.725Z,73.39
2018-05-24T21:49:19.136Z,73.69
2018-05-24T21:51:22.844Z,73.93
2018-05-24T21:53:26.221Z,74.24
2018-05-24T21:55:29.773Z,74.55
2018-05-24T21:57:33.770Z,74.88
2018-05-24T21:59:37.343Z,75.18
2018-05-24T22:01:40.914Z,75.23
2018-05-24T22:03:45.085Z,75.28
2018-05-24T22:05:48.722Z,75.03
2018-05-24T22:07:52.201Z,75.29
2018-05-24T22:09:56.437Z,75.72
2018-05-24T22:12:00.591Z,76.00
2018-05-24T22:14:04.093Z,76.39
2018-05-24T22:16:07.528Z,76.32
2018-05-24T22:18:11.727Z,76.64
2018-05-24T22:20:15.194Z,76.57
2018-05-24T22:22:18.666Z,76.63
2018-05-24T22:24:22.105Z,76.96
2018-05-24T22:26:25.694Z,77.17
2018-05-24T22:28:29.064Z,77.30
2018-05-24T22:30:32.480Z,77.08
2018-05-24T22:32:35.839Z,77.32
2018-05-24T22:34:39.328Z,77.30
2018-05-24T22:36:42.840Z,77.63
2018-05-24T22:38:46.219Z,77.57
2018-05-24T22:40:49.608Z,77.70
2018-05-24T22:42:53.024Z,77.87
2018-05-24T22:44:56.357Z,78.17
2018-05-24T22:47:00.470Z,78.11
2018-05-24T22:49:03.812Z,78.15
2018-05-24T22:51:07.124Z,78.16
2018-05-24T22:53:10.590Z,78.16
2018-05-24T22:55:15.537Z,77.88
2018-05-24T22:57:19.038Z,78.21
2018-05-24T22:59:22.465Z,78.36
2018-05-24T23:01:25.994Z,78.36
2018-05-24T23:03:32.954Z,78.34
2018-05-24T23:05:37.212Z,78.35
2018-05-24T23:07:45.352Z,78.21
2018-05-24T23:09:49.123Z,78.30
2018-05-24T23:11:52.584Z,78.49
2018-05-24T23:13:56.049Z,78.38
2018-05-24T23:15:59.802Z,78.26
2018-05-24T23:18:03.315Z,78.69
2018-05-24T23:20:07.096Z,78.67
2018-05-24T23:22:11.554Z,78.97
2018-05-24T23:24:15.104Z,79.08
2018-05-24T23:26:18.724Z,79.32
2018-05-24T23:28:22.224Z,79.51
2018-05-24T23:30:25.934Z,79.68
2018-05-24T23:32:29.393Z,79.53
2018-05-24T23:34:33.160Z,79.52
2018-05-24T23:36:37.358Z,79.82
2018-05-24T23:38:41.204Z,79.81
2018-05-24T23:40:44.561Z,79.98
2018-05-24T23:42:48.011Z,79.89
2018-05-24T23:44:51.528Z,79.98
2018-05-24T23:46:54.919Z,79.92
2018-05-24T23:48:58.302Z,79.93
2018-05-24T23:51:01.662Z,80.11
2018-05-24T23:53:05.086Z,80.27
2018-05-24T23:55:08.704Z,80.40
2018-05-24T23:57:12.124Z,80.64
2018-05-24T23:59:15.548Z,80.64
